EEL RIVER CAMP CA US current weather conditions

sailwx.info

Wind from 289 at 3 knots gusting 12

Air temperature 15.6° C
Dewpoint 5.7° C

Last reported at 2015-Sep-04 03:28 UTC.
Time now 2015-Sep-04 05:49 UTC

Location: N 40°08' W 123°49'.
View on Google Maps.

See reports from other nearby stations

  
Tides and Currents Weather Stations Pressure Air Temp Water Temp Dewpoint Dewpoint Depression Visibility Wind Speed Wind Dir Waves Ship Positions
date/time (UTC)wind fromknots sea level pressurealtimeterstation pressurevisibilityair tempwater tempwave heightnotes
2015-Sep-04 03:28 289 3 gusting 12 15.6
2015-Sep-04 02:28 004 4 gusting 19 17.2
2015-Sep-04 01:28 348 9 gusting 23 19.4
2015-Sep-04 00:28 357 9 gusting 20 20.6
2015-Sep-03 23:28 333 8 gusting 19 22.2
2015-Sep-03 22:28 360 8 gusting 17 22.8
2015-Sep-03 21:28 004 7 gusting 13 23.9
2015-Sep-03 20:28 008 5 gusting 13 23.9
2015-Sep-03 19:28 029 3 gusting 19 22.8
2015-Sep-03 18:28 001 6 gusting 15 21.7
2015-Sep-03 17:28 012 6 gusting 15 19.4
2015-Sep-03 16:28 072 4 gusting 7 17.2
2015-Sep-03 15:28 072 2 gusting 5 13.9
2015-Sep-03 14:28 049 2 gusting 6 11.7
2015-Sep-03 13:28 041 2 gusting 6 12.2
2015-Sep-03 12:28 048 3 gusting 7 13.3
2015-Sep-03 11:28 007 2 gusting 5 11.1
2015-Sep-03 10:28 286 1 gusting 2 11.7
2015-Sep-03 09:28 299 1 gusting 3 12.8
2015-Sep-03 08:28 242 1 gusting 4 13.9
2015-Sep-03 07:28 026 1 gusting 4 13.9
2015-Sep-03 06:28 357 0 gusting 6 14.4
2015-Sep-03 05:28 115 0 gusting 6 16.1
2015-Sep-03 04:28 331 4 gusting 11 17.2
2015-Sep-03 03:28 329 4 gusting 11 18.3
2015-Sep-03 02:28 001 3 gusting 10 20.0
2015-Sep-03 01:28 025 6 gusting 14 22.8
2015-Sep-03 00:28 004 9 gusting 17 24.4
2015-Sep-02 23:28 023 6 gusting 15 25.6
2015-Sep-02 22:28 27.2
2015-Sep-02 21:28 024 6 gusting 12 26.7
2015-Sep-02 20:28 305 5 gusting 13 25.6
2015-Sep-02 19:28 012 4 gusting 12 25.0
2015-Sep-02 18:28 033 5 gusting 11 23.3
2015-Sep-02 17:28 111 2 gusting 4 21.1
2015-Sep-02 16:28 152 1 gusting 2 16.7
2015-Sep-02 15:28 288 0 gusting 2 11.7
2015-Sep-02 14:28 10.6
2015-Sep-02 13:28 9.4
2015-Sep-02 12:28 10.0
2015-Sep-02 11:28 10.0
2015-Sep-02 10:28 272 0 gusting 3 11.1
2015-Sep-02 09:28 294 1 gusting 3 11.7
2015-Sep-02 08:28 254 0 gusting 2 11.7
2015-Sep-02 07:28 283 0 gusting 4 12.8
2015-Sep-02 06:28 339 2 gusting 7 15.0
2015-Sep-02 05:28 344 2 gusting 5 15.0